Time;durP1;ratioP1;P1;durP2;ratioP2;P2;SDS_P1;SDS_P2;PMS_P1;PMS_P2;Temp;Humidity;BMP_temperature;BMP_pressure;BME280_temperature;BME280_humidity;BME280_pressure;Samples;Min_cycle;Max_cycle;Signal;HPM_P1;HPM_P2
2021/03/27 00:03:29;;;;;;;27.47;19.27;;;;;;;6.67;62.09;100868.97;232881;1203;103254;-74
2021/03/27 00:08:45;;;;;;;23.73;17.43;;;;;;;6.71;62.38;100862.70;232758;1203;103235;-72
2021/03/27 00:14:04;;;;;;;23.95;17.60;;;;;;;6.66;62.56;100860.13;233095;1203;103165;-74
2021/03/27 00:19:42;;;;;;;23.00;17.00;;;;;;;6.70;62.65;100840.65;232854;1203;104681;-73
2021/03/27 00:25:00;;;;;;;25.30;18.15;;;;;;;6.65;63.27;100838.96;232847;1203;103207;-75
2021/03/27 00:30:09;;;;;;;21.40;16.40;;;;;;;6.70;63.43;100845.05;232904;1203;103146;-75
2021/03/27 00:35:48;;;;;;;24.20;17.75;;;;;;;6.66;62.89;100852.17;232941;1203;104598;-73
2021/03/27 00:40:53;;;;;;;24.40;17.75;;;;;;;6.58;63.17;100851.45;232891;1203;103175;-74
2021/03/27 00:46:01;;;;;;;26.00;18.73;;;;;;;6.60;64.34;100840.83;233043;1203;103207;-74
2021/03/27 00:51:12;;;;;;;23.00;17.00;;;;;;;6.62;64.42;100821.34;232855;1203;103162;-75
2021/03/27 00:56:34;;;;;;;24.70;18.53;;;;;;;6.59;67.55;100816.09;232776;1203;103542;-74
2021/03/27 01:01:42;;;;;;;26.73;17.93;;;;;;;6.56;69.69;100808.21;232771;1203;103283;-74
2021/03/27 01:06:49;;;;;;;25.50;18.60;;;;;;;6.49;70.80;100810.08;232876;1203;103222;-74
2021/03/27 01:12:07;;;;;;;22.05;16.15;;;;;;;6.51;72.18;100812.72;233143;1203;103274;-73
2021/03/27 01:17:14;;;;;;;20.03;15.60;;;;;;;6.56;71.63;100812.62;233300;1203;103241;-74
2021/03/27 01:22:18;;;;;;;19.80;15.43;;;;;;;6.44;71.64;100821.66;232717;1203;103184;-73
2021/03/27 01:27:29;;;;;;;29.17;18.57;;;;;;;6.36;72.46;100824.41;232692;1203;103280;-73
2021/03/27 01:32:56;;;;;;;31.07;21.47;;;;;;;6.40;75.10;100785.52;232805;1203;103155;-74
2021/03/27 01:38:08;;;;;;;22.53;15.57;;;;;;;6.26;75.19;100788.41;232783;1203;103213;-74
2021/03/27 01:43:12;;;;;;;23.13;18.03;;;;;;;6.25;76.71;100784.87;232873;1203;103293;-72
2021/03/27 01:48:31;;;;;;;24.75;18.40;;;;;;;6.30;76.76;100782.15;234123;1203;103231;-72
2021/03/27 01:53:52;;;;;;;22.15;16.95;;;;;;;6.33;75.36;100779.47;233173;1203;103294;-74
2021/03/27 01:59:23;;;;;;;25.90;18.60;;;;;;;6.36;73.52;100776.75;235086;1203;103145;-73
2021/03/27 02:04:29;;;;;;;32.90;22.30;;;;;;;6.27;73.45;100784.86;233512;1203;103863;-73
2021/03/27 02:09:39;;;;;;;25.50;18.10;;;;;;;6.23;73.21;100781.39;233690;1203;103235;-72
2021/03/27 02:15:00;;;;;;;24.97;17.57;;;;;;;6.26;71.63;100785.76;233173;1203;103149;-71
2021/03/27 02:20:23;;;;;;;28.20;18.43;;;;;;;6.24;72.17;100780.47;232689;1203;106298;-74
2021/03/27 02:25:52;;;;;;;23.65;19.40;;;;;;;6.19;72.22;100775.27;232820;1203;103206;-74
2021/03/27 02:31:16;;;;;;;28.20;20.70;;;;;;;6.09;73.51;100765.71;232963;1203;109283;-73
2021/03/27 02:36:50;;;;;;;30.50;21.87;;;;;;;6.00;73.96;100763.20;232770;1203;103587;-76
2021/03/27 02:42:04;;;;;;;30.77;22.07;;;;;;;5.95;74.54;100759.72;232885;1203;103248;-73
2021/03/27 02:47:34;;;;;;;31.50;23.00;;;;;;;5.92;74.41;100757.14;232776;1203;103226;-73
2021/03/27 02:53:13;;;;;;;32.87;22.67;;;;;;;5.86;74.27;100751.02;232766;1203;103228;-74
2021/03/27 02:58:35;;;;;;;32.55;24.15;;;;;;;5.85;74.92;100746.62;232767;1203;103605;-74
2021/03/27 03:03:48;;;;;;;31.60;23.48;;;;;;;5.89;74.03;100758.03;232840;1203;103207;-74
2021/03/27 03:08:59;;;;;;;35.57;25.50;;;;;;;5.85;74.86;100753.69;232795;1203;103497;-73
2021/03/27 03:14:20;;;;;;;29.40;22.80;;;;;;;5.84;74.36;100741.36;233070;1203;103270;-73
2021/03/27 03:19:30;;;;;;;32.18;23.25;;;;;;;5.78;74.58;100747.60;232810;1203;103158;-72
2021/03/27 03:25:00;;;;;;;35.07;23.37;;;;;;;5.71;75.48;100738.89;232864;1203;103224;-73
2021/03/27 03:30:20;;;;;;;37.60;27.50;;;;;;;5.65;76.10;100725.77;232943;1203;103161;-75
2021/03/27 03:35:34;;;;;;;37.65;24.95;;;;;;;5.59;76.17;100716.14;232832;1203;103223;-74
2021/03/27 03:41:09;;;;;;;39.80;27.43;;;;;;;5.66;76.65;100713.41;233047;1203;104659;-74
2021/03/27 03:46:13;;;;;;;39.05;27.50;;;;;;;5.78;76.96;100710.56;232917;1203;103213;-72
2021/03/27 03:51:32;;;;;;;40.10;27.65;;;;;;;5.90;75.52;100709.51;232899;1203;103352;-73
2021/03/27 03:56:54;;;;;;;41.87;29.50;;;;;;;5.85;75.74;100691.05;232919;1203;103153;-73
2021/03/27 04:02:11;;;;;;;38.05;27.95;;;;;;;5.77;75.09;100682.39;232790;1203;103530;-74
2021/03/27 04:07:18;;;;;;;43.73;28.30;;;;;;;5.73;75.71;100699.19;232808;1203;103338;-72
2021/03/27 04:12:42;;;;;;;39.55;27.40;;;;;;;5.71;75.81;100704.52;232826;1203;103211;-74
2021/03/27 04:18:03;;;;;;;37.47;26.63;;;;;;;5.67;74.97;100707.22;232968;1203;103188;-74
2021/03/27 04:23:34;;;;;;;38.95;27.10;;;;;;;5.62;75.52;100701.99;232997;1203;103198;-74
2021/03/27 04:28:52;;;;;;;38.10;26.75;;;;;;;5.58;75.45;100721.45;232981;1203;103204;-75
2021/03/27 04:34:17;;;;;;;43.47;29.80;;;;;;;5.49;76.64;100714.53;232870;1203;103223;-73
2021/03/27 04:39:51;;;;;;;46.48;32.48;;;;;;;5.55;77.34;100703.87;232737;1203;103152;-74
2021/03/27 04:45:17;;;;;;;43.25;29.50;;;;;;;5.51;76.91;100694.21;232860;1203;103168;-74
2021/03/27 04:50:47;;;;;;;39.23;29.07;;;;;;;5.59;77.09;100692.34;232883;1203;103153;-73
2021/03/27 04:55:59;;;;;;;39.00;27.40;;;;;;;5.71;76.54;100709.80;233740;1203;103216;-72
2021/03/27 05:01:29;;;;;;;46.25;30.75;;;;;;;5.73;77.21;100701.83;233164;1203;103302;-72
2021/03/27 05:06:43;;;;;;;46.33;31.77;;;;;;;5.73;76.78;100696.54;232641;1203;103146;-74
2021/03/27 05:11:50;;;;;;;41.80;29.00;;;;;;;5.75;76.94;100690.33;232857;1203;103247;-73
2021/03/27 05:17:05;;;;;;;39.80;28.80;;;;;;;5.81;77.41;100676.14;232774;1203;103143;-73
2021/03/27 05:22:22;;;;;;;48.05;32.05;;;;;;;5.81;76.63;100662.05;232748;1203;103207;-73
2021/03/27 05:27:53;;;;;;;46.85;33.25;;;;;;;5.86;77.43;100671.64;232760;1203;103306;-73
2021/03/27 05:33:22;;;;;;;46.45;32.00;;;;;;;5.99;77.07;100687.38;232815;1203;103341;-75
2021/03/27 05:38:42;;;;;;;46.20;31.20;;;;;;;6.03;77.15;100689.06;232806;1203;103628;-75
2021/03/27 05:44:10;;;;;;;47.10;33.50;;;;;;;6.04;77.46;100693.45;232786;1203;103209;-74
2021/03/27 05:49:31;;;;;;;48.47;33.30;;;;;;;6.00;78.67;100689.09;232888;1203;103146;-73
2021/03/27 05:54:51;;;;;;;43.40;30.15;;;;;;;6.00;79.38;100681.16;232841;1203;103292;-74
2021/03/27 06:00:24;;;;;;;50.73;32.17;;;;;;;6.02;79.75;100682.02;232833;1203;103257;-75
2021/03/27 06:05:28;;;;;;;49.30;33.08;;;;;;;6.11;80.17;100686.27;232934;1203;109489;-74
2021/03/27 06:10:56;;;;;;;53.63;34.33;;;;;;;6.05;80.45;100679.33;232830;1203;103120;-73
2021/03/27 06:16:00;;;;;;;48.30;34.07;;;;;;;6.09;81.18;100662.48;232901;1202;116798;-74
2021/03/27 06:21:16;;;;;;;50.38;35.15;;;;;;;6.20;80.74;100655.22;232643;1203;103175;-75
2021/03/27 06:26:38;;;;;;;47.13;34.60;;;;;;;6.41;79.18;100669.00;233712;1203;103203;-75
2021/03/27 06:32:14;;;;;;;46.30;34.10;;;;;;;6.54;78.66;100659.92;233516;1203;103565;-72
2021/03/27 06:37:34;;;;;;;45.17;33.50;;;;;;;6.58;78.91;100659.84;233077;1203;103146;-75
2021/03/27 06:42:38;;;;;;;50.70;35.25;;;;;;;6.59;78.12;100638.61;232630;1203;103222;-76
2021/03/27 06:48:22;;;;;;;46.55;32.85;;;;;;;6.62;77.62;100646.52;232858;1203;103185;-75
2021/03/27 06:54:10;;;;;;;56.20;40.00;;;;;;;6.75;77.94;100652.45;232819;1202;103494;-74
2021/03/27 06:59:59;;;;;;;54.03;38.03;;;;;;;6.81;77.47;100649.67;232902;1203;103558;-77
2021/03/27 07:05:37;;;;;;;53.60;38.30;;;;;;;6.96;77.10;100655.56;232599;1203;103594;-76
2021/03/27 07:11:00;;;;;;;53.85;36.05;;;;;;;7.11;76.41;100649.95;233488;1203;103204;-75
2021/03/27 07:16:24;;;;;;;51.10;37.80;;;;;;;7.21;75.95;100639.12;233656;1203;103206;-76
2021/03/27 07:22:00;;;;;;;49.00;34.30;;;;;;;7.37;75.58;100644.94;232897;1203;103641;-75
2021/03/27 07:27:25;;;;;;;48.03;33.37;;;;;;;7.46;74.71;100635.02;233328;1203;103184;-75
2021/03/27 07:32:34;;;;;;;52.20;35.00;;;;;;;7.60;75.43;100637.33;233565;1203;103526;-77
2021/03/27 07:37:46;;;;;;;52.15;37.75;;;;;;;7.79;73.84;100639.53;233560;1202;103169;-74
2021/03/27 07:43:30;;;;;;;43.60;31.40;;;;;;;7.93;74.30;100628.58;233694;1202;103142;-76
2021/03/27 07:48:57;;;;;;;45.05;34.20;;;;;;;8.06;74.20;100618.53;233906;1203;103530;-75
2021/03/27 07:54:28;;;;;;;44.85;34.15;;;;;;;8.41;73.73;100620.23;232979;1203;103261;-76
2021/03/27 07:59:52;;;;;;;41.07;33.50;;;;;;;8.70;71.58;100615.06;232885;1209;103223;-76
2021/03/27 08:05:12;;;;;;;51.18;36.23;;;;;;;9.00;71.49;100605.31;236680;1203;103155;-74
2021/03/27 08:10:34;;;;;;;44.75;33.20;;;;;;;9.51;68.90;100602.87;233283;1203;103760;-75
2021/03/27 08:16:06;;;;;;;42.88;34.35;;;;;;;9.70;68.96;100606.66;233377;1203;103158;-74
2021/03/27 08:21:36;;;;;;;43.15;33.00;;;;;;;10.17;66.85;100607.75;233371;1203;103699;-73
2021/03/27 08:27:28;;;;;;;45.20;33.50;;;;;;;10.46;66.51;100603.22;233612;1203;103146;-73
2021/03/27 08:32:44;;;;;;;44.00;34.90;;;;;;;10.84;64.54;100587.61;232686;1203;103507;-74
2021/03/27 08:38:04;;;;;;;35.60;28.70;;;;;;;11.18;61.35;100586.29;232771;1203;103255;-72
2021/03/27 08:43:24;;;;;;;42.00;31.13;;;;;;;11.58;58.63;100592.69;233501;1203;103531;-73
2021/03/27 08:48:29;;;;;;;36.67;28.00;;;;;;;11.80;58.55;100583.78;233512;1203;103253;-74
2021/03/27 08:53:56;;;;;;;40.25;30.80;;;;;;;11.78;59.43;100575.84;233614;1202;103225;-73
2021/03/27 08:58:58;;;;;;;43.73;32.30;;;;;;;12.20;55.78;100587.44;233501;1203;103152;-74
2021/03/27 09:04:50;;;;;;;40.60;29.60;;;;;;;12.38;55.86;100575.06;233390;1180;114191;-74
2021/03/27 09:10:13;;;;;;;35.18;27.15;;;;;;;12.56;55.00;100546.63;232322;1180;115415;-73
2021/03/27 09:15:22;;;;;;;34.70;26.95;;;;;;;12.77;55.13;100543.89;232891;1179;115015;-73
2021/03/27 09:21:04;;;;;;;41.65;31.70;;;;;;;13.04;52.71;100554.22;233106;1178;114817;-74
2021/03/27 09:26:27;;;;;;;34.70;25.45;;;;;;;13.19;51.09;100524.05;232253;1178;114953;-71
2021/03/27 09:31:59;;;;;;;35.20;27.97;;;;;;;13.35;49.71;100529.55;232244;1178;114959;-74
2021/03/27 09:37:30;;;;;;;37.40;24.25;;;;;;;13.59;49.26;100520.38;232493;1179;115030;-74
2021/03/27 09:42:56;;;;;;;33.00;24.30;;;;;;;13.94;47.89;100531.10;232901;1179;115452;-72
2021/03/27 09:48:29;;;;;;;32.70;24.60;;;;;;;13.88;47.97;100518.88;232207;1179;115058;-74
2021/03/27 09:53:48;;;;;;;34.30;26.43;;;;;;;14.09;47.03;100511.55;232394;1179;118852;-75
2021/03/27 09:59:21;;;;;;;31.10;24.40;;;;;;;14.29;47.20;100501.56;232835;1180;114871;-75
2021/03/27 10:04:54;;;;;;;32.70;22.30;;;;;;;14.63;45.32;100494.35;232168;1173;115483;-70
2021/03/27 10:10:02;;;;;;;33.90;25.80;;;;;;;14.72;45.58;100498.36;232177;1179;115087;-72
2021/03/27 10:15:21;;;;;;;33.70;27.50;;;;;;;14.99;45.13;100509.38;232216;1180;115063;-73
2021/03/27 10:20:25;;;;;;;34.37;26.47;;;;;;;15.04;43.25;100499.23;232187;1179;114925;-70
2021/03/27 10:25:40;;;;;;;30.73;23.95;;;;;;;15.23;43.22;100485.63;232192;1179;115331;-73
2021/03/27 10:31:11;;;;;;;32.93;24.63;;;;;;;15.41;43.01;100486.37;232209;1178;115033;-74
2021/03/27 10:36:54;;;;;;;30.90;24.77;;;;;;;15.69;42.69;100465.91;233168;1180;114983;-76
2021/03/27 10:42:11;;;;;;;30.53;23.93;;;;;;;15.77;42.19;100474.38;233298;1179;115501;-75
2021/03/27 10:47:34;;;;;;;30.50;24.90;;;;;;;15.76;40.97;100461.02;232482;1180;115475;-74
2021/03/27 10:52:50;;;;;;;30.77;23.97;;;;;;;15.98;41.72;100447.18;233042;1179;114851;-73
2021/03/27 10:58:23;;;;;;;23.65;19.10;;;;;;;16.17;39.82;100443.33;232134;1179;114966;-74
2021/03/27 11:03:37;;;;;;;28.55;19.63;;;;;;;16.23;38.77;100434.88;232287;1179;115357;-73
2021/03/27 11:08:55;;;;;;;26.93;20.38;;;;;;;16.58;39.25;100420.98;232190;1178;115353;-72
2021/03/27 11:14:20;;;;;;;30.60;22.83;;;;;;;16.77;38.86;100431.42;232274;1179;115173;-71
2021/03/27 11:19:32;;;;;;;28.80;22.90;;;;;;;16.97;39.11;100438.23;232460;1179;115032;-73
2021/03/27 11:24:52;;;;;;;25.37;21.53;;;;;;;17.26;38.35;100419.27;232367;1180;115851;-72
2021/03/27 11:30:01;;;;;;;25.70;20.20;;;;;;;17.55;37.16;100416.38;232166;1179;115056;-73
2021/03/27 11:35:22;;;;;;;27.33;20.37;;;;;;;17.68;36.75;100411.89;232340;1179;114951;-72
2021/03/27 11:40:46;;;;;;;25.10;19.80;;;;;;;18.46;37.16;100395.66;232258;1179;115048;-70
2021/03/27 11:46:09;;;;;;;24.05;21.35;;;;;;;18.93;35.02;100391.28;232337;1180;115079;-70
2021/03/27 11:51:16;;;;;;;21.90;18.55;;;;;;;20.16;32.07;100377.30;232205;1179;115342;-73
2021/03/27 11:57:07;;;;;;;22.20;18.60;;;;;;;20.60;31.34;100373.78;232331;1178;115209;-72
2021/03/27 12:02:23;;;;;;;23.30;19.50;;;;;;;20.82;31.90;100378.33;231874;1180;114808;-71
2021/03/27 12:07:57;;;;;;;25.80;21.00;;;;;;;20.74;32.88;100367.27;234471;1180;115019;-70
2021/03/27 12:13:44;;;;;;;20.13;18.10;;;;;;;20.49;31.49;100383.67;232245;1179;115216;-73
2021/03/27 12:18:46;;;;;;;20.40;18.23;;;;;;;20.56;30.90;100377.75;232230;1180;115379;-74
2021/03/27 12:24:00;;;;;;;22.10;19.40;;;;;;;19.74;32.39;100367.06;232745;1179;115330;-72
2021/03/27 12:29:12;;;;;;;18.23;16.30;;;;;;;21.54;29.33;100378.59;232417;1179;114943;-74
2021/03/27 12:34:27;;;;;;;20.45;18.05;;;;;;;21.91;29.18;100369.98;232642;1177;115334;-74
2021/03/27 12:39:44;;;;;;;18.55;16.55;;;;;;;23.82;27.28;100373.32;232745;1177;114952;-74
2021/03/27 12:44:58;;;;;;;14.25;12.85;;;;;;;22.96;26.08;100371.42;233092;1179;115179;-73
2021/03/27 12:50:18;;;;;;;14.70;12.00;;;;;;;22.83;25.20;100376.28;232333;1178;115101;-72
2021/03/27 12:55:57;;;;;;;14.43;12.93;;;;;;;22.88;24.90;100379.42;232794;1177;115303;-72
2021/03/27 13:01:15;;;;;;;15.90;13.40;;;;;;;21.94;26.62;100369.69;232438;1177;114931;-75
2021/03/27 13:06:27;;;;;;;15.80;13.67;;;;;;;21.58;27.01;100351.11;232668;1180;115088;-74
2021/03/27 13:11:50;;;;;;;15.97;14.37;;;;;;;21.53;27.40;100366.02;232360;1179;115540;-73
2021/03/27 13:16:58;;;;;;;19.00;15.10;;;;;;;20.69;28.69;100357.63;232998;1178;115483;-74
2021/03/27 13:22:26;;;;;;;17.90;15.65;;;;;;;19.18;31.73;100366.94;232612;1180;114967;-70
2021/03/27 13:27:34;;;;;;;16.55;14.85;;;;;;;18.52;32.36;100365.51;232420;1180;115030;-73
2021/03/27 13:32:37;;;;;;;16.95;14.80;;;;;;;18.31;32.76;100358.02;232950;1178;115307;-73
2021/03/27 13:37:59;;;;;;;15.68;12.45;;;;;;;18.05;33.36;100368.00;233253;1178;114849;-73
2021/03/27 13:43:15;;;;;;;16.95;14.30;;;;;;;17.87;33.26;100372.84;232981;1179;114911;-74
2021/03/27 13:48:22;;;;;;;19.53;14.20;;;;;;;17.65;34.22;100363.57;232958;1178;114847;-73
2021/03/27 13:53:39;;;;;;;18.65;14.05;;;;;;;17.52;34.40;100362.71;232923;1178;115163;-73
2021/03/27 13:59:00;;;;;;;17.25;13.70;;;;;;;17.43;34.58;100371.42;233023;1180;114998;-73
2021/03/27 14:04:31;;;;;;;15.55;13.05;;;;;;;17.29;34.92;100367.85;232913;1180;115463;-74
2021/03/27 14:09:55;;;;;;;12.80;10.17;;;;;;;17.30;34.72;100377.66;232638;1179;114961;-72
2021/03/27 14:15:05;;;;;;;13.80;10.60;;;;;;;17.16;35.76;100372.36;233113;1179;114960;-73
2021/03/27 14:20:45;;;;;;;11.70;8.80;;;;;;;17.15;35.64;100376.89;232403;1178;114961;-73
2021/03/27 14:26:20;;;;;;;15.90;9.75;;;;;;;17.16;35.92;100372.36;232354;1179;115234;-74
2021/03/27 14:31:43;;;;;;;18.15;11.20;;;;;;;17.09;35.93;100395.28;232669;1179;114826;-73
2021/03/27 14:37:03;;;;;;;12.60;8.80;;;;;;;16.95;35.93;100397.08;233510;1179;115183;-71
2021/03/27 14:42:16;;;;;;;9.00;7.45;;;;;;;16.77;36.72;100388.36;233236;1178;114727;-76
2021/03/27 14:47:23;;;;;;;13.17;9.10;;;;;;;16.64;38.23;100396.37;233301;1179;114934;-72
2021/03/27 14:52:33;;;;;;;12.20;9.00;;;;;;;16.58;38.36;100394.08;232401;1179;114613;-73
2021/03/27 14:57:46;;;;;;;15.80;9.55;;;;;;;16.45;39.16;100401.23;232761;1178;115011;-74
2021/03/27 15:02:59;;;;;;;12.60;10.10;;;;;;;16.33;39.67;100411.83;233247;1179;114996;-74
2021/03/27 15:08:29;;;;;;;11.25;9.40;;;;;;;16.08;42.32;100429.50;232617;1179;115565;-73
2021/03/27 15:13:33;;;;;;;10.65;7.48;;;;;;;15.20;48.78;100466.98;232634;1177;114619;-72
2021/03/27 15:18:56;;;;;;;13.80;8.87;;;;;;;14.70;54.44;100486.84;231979;1174;114775;-75
2021/03/27 15:24:09;;;;;;;10.45;9.05;;;;;;;14.12;59.13;100492.60;232202;1179;114965;-73
2021/03/27 15:29:16;;;;;;;13.18;9.18;;;;;;;13.81;61.14;100515.67;232264;1180;115124;-74
2021/03/27 15:34:38;;;;;;;15.83;10.93;;;;;;;12.03;84.37;100585.50;233159;1180;114671;-74
2021/03/27 15:39:55;;;;;;;18.60;9.50;;;;;;;11.39;98.49;100605.05;232444;1179;115027;-72
2021/03/27 15:45:22;;;;;;;19.20;12.43;;;;;;;11.41;100.00;100616.54;233056;1179;115034;-75
2021/03/27 15:50:34;;;;;;;14.43;8.73;;;;;;;11.32;100.00;100621.31;232929;1179;115475;-74
2021/03/27 15:55:53;;;;;;;15.10;11.60;;;;;;;11.29;100.00;100632.09;232798;1178;115538;-74
2021/03/27 16:00:59;;;;;;;15.30;11.00;;;;;;;10.81;100.00;100652.59;232382;1179;115120;-75
2021/03/27 16:06:10;;;;;;;8.90;7.57;;;;;;;10.75;100.00;100674.13;232923;1179;114969;-73
2021/03/27 16:11:29;;;;;;;15.95;8.88;;;;;;;10.63;100.00;100675.47;232928;1179;114995;-73
2021/03/27 16:16:56;;;;;;;9.70;7.67;;;;;;;10.46;100.00;100677.84;232600;1178;114983;-72
2021/03/27 16:22:20;;;;;;;7.80;6.30;;;;;;;10.17;100.00;100682.34;233250;1180;114773;-75
2021/03/27 16:27:24;;;;;;;6.90;6.25;;;;;;;10.34;100.00;100701.30;233386;1179;115369;-72
2021/03/27 16:32:54;;;;;;;8.40;7.68;;;;;;;10.15;100.00;100710.84;232208;1179;114764;-72
2021/03/27 16:38:33;;;;;;;5.30;4.80;;;;;;;10.02;100.00;100748.52;232308;1178;115257;-72
2021/03/27 16:44:13;;;;;;;4.67;3.03;;;;;;;9.36;100.00;100758.52;232281;1179;114891;-74
2021/03/27 16:49:28;;;;;;;3.63;3.33;;;;;;;9.20;100.00;100768.73;232128;1179;114785;-74
2021/03/27 16:54:40;;;;;;;3.15;2.10;;;;;;;8.85;100.00;100786.53;232326;1178;115856;-75
2021/03/27 17:00:08;;;;;;;4.18;3.10;;;;;;;8.41;100.00;100786.73;232987;1177;114808;-75
2021/03/27 17:05:28;;;;;;;5.57;4.70;;;;;;;8.79;100.00;100787.55;232885;1178;114465;-76
2021/03/27 17:10:32;;;;;;;6.95;4.80;;;;;;;8.66;100.00;100772.84;233394;1179;114532;-75
2021/03/27 17:15:55;;;;;;;7.13;4.93;;;;;;;8.67;100.00;100788.74;232973;1179;114594;-74
2021/03/27 17:21:16;;;;;;;6.03;4.70;;;;;;;8.45;100.00;100810.54;233099;1179;114665;-74
2021/03/27 17:26:55;;;;;;;5.50;4.90;;;;;;;8.52;100.00;100803.30;232761;1179;114695;-73
2021/03/27 17:32:00;;;;;;;8.40;6.10;;;;;;;8.66;100.00;100820.69;232270;1178;114906;-73
2021/03/27 17:37:18;;;;;;;8.10;6.28;;;;;;;8.58;100.00;100839.49;232320;1179;115047;-73
2021/03/27 17:42:31;;;;;;;7.60;5.60;;;;;;;8.39;100.00;100837.23;233486;1178;114578;-74
2021/03/27 17:47:40;;;;;;;8.03;5.40;;;;;;;8.33;100.00;100847.14;234141;1178;114540;-75
2021/03/27 17:52:51;;;;;;;5.15;4.60;;;;;;;8.56;100.00;100857.25;233146;1179;114598;-76
2021/03/27 17:58:01;;;;;;;5.43;4.80;;;;;;;8.72;100.00;100853.31;233101;1179;115084;-76
2021/03/27 18:03:46;;;;;;;6.20;4.60;;;;;;;8.64;100.00;100859.70;233069;1180;114895;-75
2021/03/27 18:08:53;;;;;;;7.90;5.70;;;;;;;8.55;100.00;100863.47;232295;1180;114869;-74
2021/03/27 18:14:34;;;;;;;6.20;5.20;;;;;;;8.51;100.00;100860.02;233042;1179;114818;-75
2021/03/27 18:19:49;;;;;;;6.40;5.75;;;;;;;8.54;100.00;100865.27;234276;1179;115861;-74
2021/03/27 18:25:11;;;;;;;7.45;6.20;;;;;;;8.64;100.00;100868.57;233419;1179;114665;-75
2021/03/27 18:30:22;;;;;;;9.03;6.97;;;;;;;8.74;100.00;100871.88;233099;1180;114431;-75
2021/03/27 18:35:37;;;;;;;8.25;7.20;;;;;;;8.59;100.00;100889.08;233169;1178;114576;-74
2021/03/27 18:40:44;;;;;;;8.63;6.33;;;;;;;8.52;100.00;100914.91;233297;1180;114531;-73
2021/03/27 18:45:47;;;;;;;9.50;7.30;;;;;;;8.68;100.00;100907.44;233147;1178;115010;-74
2021/03/27 18:50:52;;;;;;;7.40;6.70;;;;;;;8.45;100.00;100924.78;233206;1180;115042;-76
2021/03/27 18:56:08;;;;;;;9.75;6.70;;;;;;;8.56;100.00;100929.00;233288;1178;114570;-76
2021/03/27 19:01:32;;;;;;;9.10;7.95;;;;;;;8.47;100.00;100929.20;233124;1179;114542;-76
2021/03/27 19:06:42;;;;;;;12.20;9.85;;;;;;;8.36;100.00;100940.92;233241;1180;114671;-74
2021/03/27 19:11:51;;;;;;;14.80;10.60;;;;;;;8.29;100.00;100941.96;233298;1179;114805;-76
2021/03/27 19:16:53;;;;;;;17.83;13.03;;;;;;;8.29;100.00;100939.31;233440;1179;115064;-76
2021/03/27 19:22:00;;;;;;;13.60;11.47;;;;;;;8.31;100.00;100932.19;233231;1178;114823;-76
2021/03/27 19:27:03;;;;;;;9.93;8.80;;;;;;;8.16;100.00;100935.17;233123;1178;115030;-77
2021/03/27 19:32:07;;;;;;;12.20;10.50;;;;;;;8.04;100.00;100944.27;233276;1179;114578;-76
2021/03/27 19:37:16;;;;;;;16.23;12.70;;;;;;;8.18;100.00;100949.27;233470;1179;116090;-79
2021/03/27 19:42:31;;;;;;;12.10;10.30;;;;;;;8.18;100.00;100954.58;233368;1179;115194;-81
2021/03/27 19:47:41;;;;;;;20.40;17.53;;;;;;;8.11;100.00;100965.33;233227;1179;115134;-76
2021/03/27 19:52:55;;;;;;;11.70;9.67;;;;;;;7.91;100.00;100964.86;232890;1180;115488;-77
2021/03/27 19:58:16;;;;;;;9.33;8.17;;;;;;;7.85;100.00;100957.03;233113;1178;115014;-74
2021/03/27 20:04:00;;;;;;;7.80;7.00;;;;;;;7.75;100.00;100949.23;233154;1179;115192;-75
2021/03/27 20:09:17;;;;;;;9.07;7.70;;;;;;;7.82;100.00;100981.85;232865;1179;114873;-73
2021/03/27 20:14:29;;;;;;;12.33;9.70;;;;;;;7.77;100.00;100981.94;233147;1179;114620;-73
2021/03/27 20:19:38;;;;;;;11.50;10.20;;;;;;;7.61;100.00;100999.06;232803;1179;114919;-74
2021/03/27 20:25:01;;;;;;;11.67;10.10;;;;;;;7.61;100.00;101010.54;233313;1178;114934;-73
2021/03/27 20:30:22;;;;;;;8.95;7.65;;;;;;;7.55;100.00;101020.38;233115;1178;115367;-75
2021/03/27 20:35:23;;;;;;;9.90;8.17;;;;;;;7.52;100.00;101009.83;232375;1178;114474;-73
2021/03/27 20:40:46;;;;;;;10.10;8.70;;;;;;;7.36;100.00;101010.09;232818;1180;114549;-73
2021/03/27 20:45:48;;;;;;;13.45;10.30;;;;;;;7.38;100.00;101016.25;232111;1178;115165;-73
2021/03/27 20:50:54;;;;;;;11.23;9.70;;;;;;;7.35;100.00;101021.59;232238;1179;116124;-74
2021/03/27 20:56:20;;;;;;;11.50;10.27;;;;;;;7.30;100.00;101028.76;233243;1180;115207;-73
2021/03/27 21:01:32;;;;;;;12.27;10.07;;;;;;;7.18;100.00;101043.98;232508;1179;115422;-75
2021/03/27 21:06:59;;;;;;;10.75;9.65;;;;;;;7.15;100.00;101057.27;233140;1179;114803;-73
2021/03/27 21:12:08;;;;;;;12.25;10.65;;;;;;;7.11;100.00;101068.83;232743;1179;114905;-74
2021/03/27 21:17:21;;;;;;;15.63;12.60;;;;;;;7.01;100.00;101085.76;232327;1179;114925;-73
2021/03/27 21:22:44;;;;;;;13.90;10.70;;;;;;;6.89;100.00;101072.69;232981;1172;114828;-74
2021/03/27 21:28:03;;;;;;;13.17;11.47;;;;;;;6.83;100.00;101069.23;233109;1178;115030;-74
2021/03/27 21:33:32;;;;;;;13.30;10.70;;;;;;;6.83;100.00;101063.93;233303;1178;115274;-73
2021/03/27 21:38:43;;;;;;;13.13;10.63;;;;;;;6.82;100.00;101062.17;233320;1179;115131;-74
2021/03/27 21:43:50;;;;;;;13.50;11.30;;;;;;;6.84;100.00;101070.95;233232;1179;115118;-73
2021/03/27 21:49:12;;;;;;;13.73;11.33;;;;;;;6.80;100.00;101061.30;233110;1178;114825;-73
2021/03/27 21:54:42;;;;;;;12.70;10.60;;;;;;;6.71;100.00;101085.27;232852;1179;115095;-75
2021/03/27 22:00:08;;;;;;;15.60;11.60;;;;;;;6.64;100.00;101088.89;232853;1178;114903;-75
2021/03/27 22:05:15;;;;;;;13.80;12.30;;;;;;;6.60;100.00;101087.19;233053;1179;114940;-74
2021/03/27 22:10:40;;;;;;;13.25;11.30;;;;;;;6.43;100.00;101095.34;232909;1180;115468;-75
2021/03/27 22:16:03;;;;;;;15.60;12.30;;;;;;;6.41;100.00;101095.37;232744;1179;116515;-72
2021/03/27 22:21:11;;;;;;;14.10;10.67;;;;;;;6.35;100.00;101113.95;232677;1178;114994;-73
2021/03/27 22:26:16;;;;;;;17.85;13.95;;;;;;;6.46;100.00;101111.18;233151;1179;114865;-73
2021/03/27 22:31:35;;;;;;;12.40;10.75;;;;;;;6.36;100.00;101116.60;233075;1179;114773;-72
2021/03/27 22:37:01;;;;;;;13.10;10.00;;;;;;;6.29;100.00;101124.61;232756;1180;114885;-73
2021/03/27 22:42:25;;;;;;;9.23;7.40;;;;;;;6.28;100.00;101133.44;232773;1179;115202;-75
2021/03/27 22:47:33;;;;;;;11.65;8.30;;;;;;;6.25;100.00;101144.08;233090;1178;114366;-73
2021/03/27 22:53:07;;;;;;;7.93;5.87;;;;;;;6.26;100.00;101156.44;233066;1179;114772;-73
2021/03/27 22:58:14;;;;;;;6.30;5.50;;;;;;;6.20;100.00;101165.30;232436;1183;114593;-74
2021/03/27 23:03:19;;;;;;;6.10;4.00;;;;;;;6.15;100.00;101175.06;232813;1203;103223;-73
2021/03/27 23:08:24;;;;;;;6.20;4.40;;;;;;;6.05;100.00;101171.63;232897;1203;103523;-72
2021/03/27 23:13:29;;;;;;;6.20;5.00;;;;;;;5.96;100.00;101174.31;232835;1203;103216;-73
2021/03/27 23:18:47;;;;;;;8.57;5.60;;;;;;;5.83;100.00;101174.42;232742;1203;103511;-72
2021/03/27 23:23:55;;;;;;;7.35;3.95;;;;;;;5.79;100.00;101172.67;232858;1203;103155;-72
2021/03/27 23:29:26;;;;;;;7.00;4.40;;;;;;;5.86;100.00;101184.96;233496;1203;103229;-72
2021/03/27 23:34:50;;;;;;;6.40;4.20;;;;;;;5.64;100.00;101193.97;232954;1203;103743;-71
2021/03/27 23:39:54;;;;;;;6.95;4.45;;;;;;;5.59;100.00;101197.50;232866;1203;107432;-73
2021/03/27 23:44:58;;;;;;;4.55;3.70;;;;;;;5.68;100.00;101209.78;232892;1203;103224;-72
2021/03/27 23:50:20;;;;;;;8.70;4.60;;;;;;;5.60;100.00;101208.98;232550;1203;103242;-73